createdAt,value
2022-10-19T00:02:19.729Z,73.20
2022-10-19T00:04:47.626Z,72.90
2022-10-19T00:07:15.506Z,73.00
2022-10-19T00:09:44.319Z,73.20
2022-10-19T00:12:12.919Z,73.20
2022-10-19T00:14:42.141Z,73.20
2022-10-19T00:17:10.012Z,73.30
2022-10-19T00:19:37.900Z,73.40
2022-10-19T00:22:07.182Z,73.80
2022-10-19T00:24:37.018Z,73.70
2022-10-19T00:27:06.225Z,73.70
2022-10-19T00:29:34.109Z,73.80
2022-10-19T00:32:03.315Z,73.80
2022-10-19T00:34:31.227Z,74.30
2022-10-19T00:36:59.103Z,74.20
2022-10-19T00:39:26.988Z,73.80
2022-10-19T00:41:54.885Z,73.30
2022-10-19T00:45:01.008Z,72.80
2022-10-19T00:47:30.247Z,72.70
2022-10-19T00:49:58.220Z,72.70
2022-10-19T00:52:26.098Z,72.90
2022-10-19T00:54:54.163Z,73.20
2022-10-19T00:57:22.145Z,73.70
2022-10-19T00:59:50.009Z,73.70
2022-10-19T01:02:17.899Z,73.60
2022-10-19T01:04:48.688Z,73.70
2022-10-19T01:07:16.638Z,73.90
2022-10-19T01:09:44.519Z,74.10
2022-10-19T01:12:19.074Z,74.00
2022-10-19T01:14:54.667Z,73.90
2022-10-19T01:17:25.836Z,73.90
2022-10-19T01:20:15.826Z,74.20
2022-10-19T01:22:52.042Z,74.50
2022-10-19T01:25:22.772Z,74.10
2022-10-19T01:27:58.291Z,73.50
2022-10-19T01:30:33.757Z,73.70
2022-10-19T01:33:05.890Z,72.60
2022-10-19T01:35:36.712Z,72.60
2022-10-19T01:38:13.481Z,72.70
2022-10-19T01:40:43.660Z,72.90
2022-10-19T01:43:14.242Z,73.40
2022-10-19T01:45:45.395Z,73.50
2022-10-19T01:48:15.145Z,73.50
2022-10-19T01:50:44.689Z,73.50
2022-10-19T01:53:12.782Z,73.70
2022-10-19T01:55:43.307Z,74.10
2022-10-19T01:58:12.670Z,73.90
2022-10-19T02:00:43.338Z,73.90
2022-10-19T02:03:11.242Z,73.80
2022-10-19T02:05:39.133Z,74.00
2022-10-19T02:08:09.510Z,74.10
2022-10-19T02:10:38.313Z,74.20
2022-10-19T02:13:06.184Z,74.30
2022-10-19T02:15:34.381Z,74.40
2022-10-19T02:18:03.595Z,74.60
2022-10-19T02:20:31.475Z,74.60
2022-10-19T02:22:59.359Z,75.00
2022-10-19T02:25:27.249Z,74.60
2022-10-19T02:27:55.150Z,74.00
2022-10-19T02:30:23.059Z,73.20
2022-10-19T02:32:51.182Z,72.60
2022-10-19T02:35:20.464Z,71.90
2022-10-19T02:37:48.351Z,71.10
2022-10-19T02:40:16.290Z,70.60
2022-10-19T02:42:45.016Z,70.10
2022-10-19T02:45:14.354Z,69.80
2022-10-19T02:47:43.898Z,69.60
2022-10-19T02:50:12.041Z,69.30
2022-10-19T02:52:41.269Z,69.40
2022-10-19T02:55:09.579Z,69.80
2022-10-19T02:57:37.648Z,70.20
2022-10-19T03:00:06.595Z,70.60
2022-10-19T03:02:34.522Z,70.80
2022-10-19T03:05:02.501Z,71.10
2022-10-19T03:07:30.363Z,71.40
2022-10-19T03:09:59.584Z,72.00
2022-10-19T03:12:27.437Z,72.30
2022-10-19T03:14:55.332Z,72.20
2022-10-19T03:17:23.242Z,72.10
2022-10-19T03:19:51.128Z,71.70
2022-10-19T03:22:19.130Z,71.70
2022-10-19T03:24:46.990Z,71.70
2022-10-19T03:27:16.207Z,71.90
2022-10-19T03:29:44.069Z,72.10
2022-10-19T03:32:11.925Z,72.70
2022-10-19T03:34:39.955Z,72.70
2022-10-19T03:37:08.610Z,72.70
2022-10-19T03:39:36.497Z,72.90
2022-10-19T03:42:04.464Z,73.00
2022-10-19T03:44:33.684Z,73.40
2022-10-19T03:47:01.549Z,73.30
2022-10-19T03:49:29.424Z,73.30
2022-10-19T03:51:57.327Z,73.30
2022-10-19T03:54:27.405Z,73.50
2022-10-19T03:56:55.588Z,74.00
2022-10-19T03:59:24.293Z,73.80
2022-10-19T04:01:53.525Z,73.30
2022-10-19T04:04:21.385Z,72.70
2022-10-19T04:06:49.913Z,72.30
2022-10-19T04:09:18.871Z,72.10
2022-10-19T04:11:46.789Z,72.20
2022-10-19T04:14:22.713Z,72.40
2022-10-19T04:17:02.256Z,72.70
2022-10-19T04:19:30.220Z,73.00
2022-10-19T04:21:58.220Z,73.00
2022-10-19T04:24:26.106Z,73.20
2022-10-19T04:26:55.275Z,73.20
2022-10-19T04:29:26.337Z,73.60
2022-10-19T04:31:57.555Z,73.70
2022-10-19T04:34:26.771Z,73.40
2022-10-19T04:36:54.782Z,72.90
2022-10-19T04:39:22.661Z,72.90
2022-10-19T04:41:50.552Z,73.00
2022-10-19T04:44:18.523Z,73.20
2022-10-19T04:46:46.559Z,73.10
2022-10-19T04:49:16.524Z,73.20
2022-10-19T04:51:48.738Z,73.20
2022-10-19T04:54:16.647Z,73.70
2022-10-19T04:56:44.516Z,73.70
2022-10-19T04:59:12.421Z,73.70
2022-10-19T05:01:44.774Z,73.60
2022-10-19T05:04:15.279Z,73.70
2022-10-19T05:06:43.164Z,74.10
2022-10-19T05:09:12.438Z,74.10
2022-10-19T05:11:40.426Z,73.70
2022-10-19T05:14:08.644Z,73.20
2022-10-19T05:16:38.426Z,72.60
2022-10-19T05:19:06.262Z,72.50
2022-10-19T05:21:34.225Z,72.40
2022-10-19T05:24:02.120Z,72.70
2022-10-19T05:26:31.396Z,72.80
2022-10-19T05:29:01.757Z,73.30
2022-10-19T05:31:30.540Z,73.40
2022-10-19T05:33:58.533Z,73.40
2022-10-19T05:36:27.664Z,73.50
2022-10-19T05:38:56.551Z,73.60
2022-10-19T05:41:24.885Z,74.10
2022-10-19T05:43:55.480Z,74.00
2022-10-19T05:46:23.547Z,74.00
2022-10-19T05:48:51.411Z,73.90
2022-10-19T05:51:20.512Z,74.10
2022-10-19T05:53:48.457Z,74.30
2022-10-19T05:56:17.186Z,74.00
2022-10-19T05:58:45.086Z,73.50
2022-10-19T06:01:14.900Z,73.00
2022-10-19T06:03:42.998Z,72.70
2022-10-19T06:06:10.948Z,72.60
2022-10-19T06:08:39.070Z,72.70
2022-10-19T06:11:07.321Z,72.90
2022-10-19T06:13:35.194Z,73.30
2022-10-19T06:16:03.120Z,73.70
2022-10-19T06:18:32.383Z,73.60
2022-10-19T06:21:02.914Z,73.50
2022-10-19T06:23:31.017Z,73.70
2022-10-19T06:25:59.048Z,74.00
2022-10-19T06:28:26.939Z,74.20
2022-10-19T06:30:54.899Z,74.10
2022-10-19T06:33:22.970Z,74.00
2022-10-19T06:35:52.195Z,73.90
2022-10-19T06:38:20.061Z,74.20
2022-10-19T06:40:49.052Z,74.50
2022-10-19T06:43:16.969Z,74.10
2022-10-19T06:45:44.831Z,73.70
2022-10-19T06:48:12.743Z,73.10
2022-10-19T06:50:40.593Z,72.70
2022-10-19T06:53:09.810Z,72.50
2022-10-19T06:55:37.697Z,72.50
2022-10-19T06:58:05.578Z,72.60
2022-10-19T07:00:33.495Z,73.10
2022-10-19T07:03:01.458Z,73.40
2022-10-19T07:05:29.333Z,73.40
2022-10-19T07:07:58.624Z,73.50
2022-10-19T07:10:27.967Z,73.50
2022-10-19T07:12:57.316Z,73.70
2022-10-19T07:15:25.256Z,74.10
2022-10-19T07:17:54.112Z,74.10
2022-10-19T07:20:21.988Z,73.90
2022-10-19T07:22:49.844Z,73.90
2022-10-19T07:25:17.963Z,74.10
2022-10-19T07:27:47.182Z,74.40
2022-10-19T07:30:15.041Z,74.20
2022-10-19T07:32:46.771Z,73.70
2022-10-19T07:35:15.270Z,73.20
2022-10-19T07:37:43.180Z,72.80
2022-10-19T07:40:12.495Z,72.70
2022-10-19T07:42:40.365Z,72.80
2022-10-19T07:45:10.492Z,72.90
2022-10-19T07:47:38.374Z,73.30
2022-10-19T07:50:06.692Z,73.60
2022-10-19T07:52:36.841Z,73.60
2022-10-19T07:55:05.490Z,73.70
2022-10-19T07:57:33.353Z,73.70
2022-10-19T08:00:01.274Z,74.10
2022-10-19T08:02:39.422Z,74.20
2022-10-19T08:05:18.580Z,74.10
2022-10-19T08:07:47.016Z,74.00
2022-10-19T08:10:14.890Z,74.00
2022-10-19T08:12:42.744Z,74.40
2022-10-19T08:15:11.058Z,74.50
2022-10-19T08:17:40.674Z,74.10
2022-10-19T08:20:08.909Z,73.60
2022-10-19T08:22:37.039Z,73.40
2022-10-19T08:25:05.653Z,73.30
2022-10-19T08:27:33.595Z,73.60
2022-10-19T08:30:01.520Z,73.60
2022-10-19T08:32:29.381Z,73.40
2022-10-19T08:34:58.582Z,73.40
2022-10-19T08:37:43.774Z,73.60
2022-10-19T08:40:17.734Z,74.00
2022-10-19T08:42:50.341Z,74.00
2022-10-19T08:45:28.066Z,74.00
2022-10-19T08:48:08.745Z,74.00
2022-10-19T08:50:39.067Z,74.10
2022-10-19T08:53:08.202Z,74.60
2022-10-19T08:55:44.655Z,74.30
2022-10-19T08:58:21.676Z,74.00
2022-10-19T09:00:51.467Z,73.30
2022-10-19T09:03:32.083Z,72.90
2022-10-19T09:06:20.208Z,72.90
2022-10-19T09:08:48.147Z,72.90
2022-10-19T09:11:16.076Z,73.00
2022-10-19T09:14:04.163Z,73.50
2022-10-19T09:16:33.202Z,73.80
2022-10-19T09:19:01.117Z,73.80
2022-10-19T09:21:40.894Z,73.70
2022-10-19T09:24:22.962Z,73.80
2022-10-19T09:26:52.419Z,74.20
2022-10-19T09:29:22.905Z,74.30
2022-10-19T09:31:50.822Z,74.00
2022-10-19T09:34:22.162Z,73.60
2022-10-19T09:36:54.073Z,73.50
2022-10-19T09:39:23.512Z,73.70
2022-10-19T09:41:55.765Z,73.70
2022-10-19T09:44:24.343Z,73.70
2022-10-19T09:46:53.318Z,74.40
2022-10-19T09:49:21.335Z,73.70
2022-10-19T09:51:52.207Z,74.20
2022-10-19T09:54:27.610Z,74.20
2022-10-19T09:56:56.111Z,74.10
2022-10-19T09:59:25.639Z,74.00
2022-10-19T10:02:14.958Z,74.10
2022-10-19T10:04:42.847Z,74.60
2022-10-19T10:07:15.212Z,74.50
2022-10-19T10:09:43.192Z,74.10
2022-10-19T10:12:13.597Z,73.60
2022-10-19T10:14:41.459Z,73.00
2022-10-19T10:17:15.083Z,72.80
2022-10-19T10:19:51.577Z,72.90
2022-10-19T10:22:28.117Z,73.00
2022-10-19T10:24:56.667Z,73.30
2022-10-19T10:27:32.094Z,73.90
2022-10-19T10:30:00.374Z,74.60
2022-10-19T10:32:28.633Z,73.90
2022-10-19T10:35:01.236Z,73.80
2022-10-19T10:37:35.644Z,74.00
2022-10-19T10:40:05.051Z,74.40
2022-10-19T10:42:35.796Z,74.30
2022-10-19T10:45:04.058Z,74.10
2022-10-19T10:47:32.189Z,74.20
2022-10-19T10:50:02.679Z,74.30
2022-10-19T10:52:32.467Z,74.70
2022-10-19T10:55:02.070Z,74.40
2022-10-19T10:57:31.809Z,74.10
2022-10-19T11:00:02.362Z,73.40
2022-10-19T11:02:36.951Z,73.00
2022-10-19T11:05:07.572Z,73.00
2022-10-19T11:07:37.197Z,72.90
2022-10-19T11:10:09.948Z,73.10
2022-10-19T11:12:39.881Z,73.40
2022-10-19T11:15:13.890Z,73.90
2022-10-19T11:17:44.830Z,73.90
2022-10-19T11:20:15.696Z,73.70
2022-10-19T11:22:47.755Z,73.80
2022-10-19T11:25:24.949Z,73.90
2022-10-19T11:27:57.712Z,74.30
2022-10-19T11:30:25.861Z,74.30
2022-10-19T11:32:58.764Z,74.20
2022-10-19T11:35:36.123Z,74.20
2022-10-19T11:38:20.215Z,74.60
2022-10-19T11:41:16.387Z,74.70
2022-10-19T11:43:44.040Z,74.30
2022-10-19T11:46:14.780Z,73.70
2022-10-19T11:48:54.938Z,73.20
2022-10-19T11:51:26.535Z,73.00
2022-10-19T11:54:01.884Z,72.90
2022-10-19T11:56:44.807Z,72.90
2022-10-19T11:59:24.496Z,73.20
2022-10-19T12:01:55.842Z,73.80
2022-10-19T12:04:46.672Z,73.90
2022-10-19T12:07:33.949Z,74.00
2022-10-19T12:10:07.599Z,74.10
2022-10-19T12:12:37.112Z,74.20
2022-10-19T12:15:15.281Z,74.60
2022-10-19T12:17:44.410Z,74.60
2022-10-19T12:20:19.858Z,74.30
2022-10-19T12:22:48.022Z,74.30
2022-10-19T12:25:17.614Z,74.40
2022-10-19T12:27:47.479Z,74.80
2022-10-19T12:30:16.528Z,74.70
2022-10-19T12:32:53.456Z,74.50
2022-10-19T12:35:32.185Z,73.90
2022-10-19T12:38:02.684Z,73.30
2022-10-19T12:40:35.131Z,73.00
2022-10-19T12:43:04.554Z,73.20
2022-10-19T12:45:32.586Z,73.40
2022-10-19T12:48:18.826Z,73.60
2022-10-19T12:51:03.568Z,74.00
2022-10-19T12:53:35.785Z,73.90
2022-10-19T12:56:06.421Z,74.10
2022-10-19T12:58:37.433Z,74.30
2022-10-19T13:01:06.419Z,74.40
2022-10-19T13:03:36.967Z,74.60
2022-10-19T13:06:09.060Z,74.60
2022-10-19T13:08:43.231Z,74.60
2022-10-19T13:11:14.721Z,75.40
2022-10-19T13:13:56.597Z,74.80
2022-10-19T13:17:07.539Z,74.90
2022-10-19T13:19:35.411Z,74.80
2022-10-19T13:22:24.522Z,74.70
2022-10-19T13:25:15.339Z,74.80
2022-10-19T13:27:44.779Z,75.00
2022-10-19T13:30:46.125Z,74.90
2022-10-19T13:33:50.860Z,74.40
2022-10-19T13:36:19.237Z,73.70
2022-10-19T13:38:48.047Z,73.20
2022-10-19T13:41:18.829Z,73.00
2022-10-19T13:44:06.694Z,73.20
2022-10-19T13:46:49.817Z,73.40
2022-10-19T13:49:49.992Z,73.80
2022-10-19T13:52:31.399Z,74.00
2022-10-19T13:55:19.676Z,73.90
2022-10-19T13:57:55.303Z,74.00
2022-10-19T14:00:26.272Z,74.10
2022-10-19T14:03:10.750Z,74.80
2022-10-19T14:05:53.599Z,74.50
2022-10-19T14:09:16.118Z,74.30
2022-10-19T14:11:44.560Z,74.40
2022-10-19T14:14:14.681Z,74.70
2022-10-19T14:16:52.684Z,74.80
2022-10-19T14:19:27.707Z,74.60
2022-10-19T14:21:56.883Z,74.10
2022-10-19T14:24:32.751Z,73.30
2022-10-19T14:27:01.830Z,73.00
2022-10-19T14:29:29.811Z,73.00
2022-10-19T14:31:59.581Z,73.20
2022-10-19T14:34:27.520Z,73.30
2022-10-19T14:36:56.039Z,73.90
2022-10-19T14:39:26.952Z,74.00
2022-10-19T14:41:55.542Z,73.80
2022-10-19T14:44:36.133Z,73.90
2022-10-19T14:47:19.928Z,74.10
2022-10-19T14:49:47.809Z,74.50
2022-10-19T14:52:18.063Z,74.60
2022-10-19T14:54:46.926Z,74.30
2022-10-19T14:57:15.964Z,74.30
2022-10-19T14:59:46.189Z,74.40
2022-10-19T15:02:18.717Z,74.90
2022-10-19T15:04:46.579Z,74.70
2022-10-19T15:07:17.242Z,74.30
2022-10-19T15:09:49.439Z,73.80
2022-10-19T15:12:19.249Z,73.30
2022-10-19T15:14:47.128Z,73.20
2022-10-19T15:17:29.115Z,73.20
2022-10-19T15:19:58.364Z,73.30
2022-10-19T15:22:39.143Z,73.60
2022-10-19T15:25:28.598Z,74.10
2022-10-19T15:27:57.597Z,74.10
2022-10-19T15:30:27.940Z,74.00
2022-10-19T15:33:09.184Z,74.10
2022-10-19T15:35:37.919Z,74.30
2022-10-19T15:38:09.834Z,74.80
2022-10-19T15:40:38.841Z,74.60
2022-10-19T15:43:33.592Z,74.40
2022-10-19T15:46:02.264Z,74.40
2022-10-19T15:48:48.113Z,74.90
2022-10-19T15:51:42.996Z,74.80
2022-10-19T15:54:11.135Z,74.50
2022-10-19T15:56:40.022Z,74.00
2022-10-19T15:59:11.459Z,73.80
2022-10-19T16:01:39.440Z,73.80
2022-10-19T16:04:08.746Z,74.10
2022-10-19T16:06:38.739Z,74.00
2022-10-19T16:09:06.822Z,73.80
2022-10-19T16:11:35.275Z,73.90
2022-10-19T16:14:03.314Z,74.10
2022-10-19T16:16:34.485Z,74.50
2022-10-19T16:19:02.482Z,74.40
2022-10-19T16:21:32.950Z,74.30
2022-10-19T16:24:00.978Z,74.30
2022-10-19T16:26:29.159Z,74.40
2022-10-19T16:28:57.725Z,74.80
2022-10-19T16:31:25.607Z,74.80
2022-10-19T16:33:53.566Z,74.60
2022-10-19T16:36:21.447Z,74.60
2022-10-19T16:38:50.681Z,74.60
2022-10-19T16:41:18.573Z,75.00
2022-10-19T16:43:48.245Z,75.00
2022-10-19T16:46:16.151Z,74.60
2022-10-19T16:48:44.022Z,74.10
2022-10-19T16:51:36.417Z,73.50
2022-10-19T16:54:06.348Z,73.10
2022-10-19T16:56:34.566Z,73.10
2022-10-19T16:59:03.376Z,73.20
2022-10-19T17:01:31.523Z,73.40
2022-10-19T17:03:59.587Z,73.90
2022-10-19T17:06:27.913Z,74.00
2022-10-19T17:11:46.157Z,74.00
2022-10-19T17:14:14.081Z,74.20
2022-10-19T17:16:41.982Z,75.30
2022-10-19T17:19:09.992Z,74.60
2022-10-19T17:21:38.620Z,74.20
2022-10-19T17:24:07.274Z,73.70
2022-10-19T17:26:36.475Z,73.70
2022-10-19T17:29:05.918Z,73.70
2022-10-19T17:31:33.844Z,74.00
2022-10-19T17:34:01.952Z,73.90
2022-10-19T17:36:31.109Z,73.90
2022-10-19T17:39:00.189Z,74.00
2022-10-19T17:41:28.394Z,74.20
2022-10-19T17:43:56.720Z,74.50
2022-10-19T17:46:27.140Z,74.40
2022-10-19T17:48:55.074Z,74.20
2022-10-19T17:51:24.517Z,74.30
2022-10-19T17:53:52.413Z,74.60
2022-10-19T17:56:20.973Z,74.80
2022-10-19T17:58:49.252Z,74.50
2022-10-19T18:01:17.350Z,74.00
2022-10-19T18:03:46.608Z,73.40
2022-10-19T18:06:15.446Z,73.00
2022-10-19T18:08:44.609Z,73.00
2022-10-19T18:11:13.826Z,73.20
2022-10-19T18:13:41.839Z,73.30
2022-10-19T18:16:10.584Z,73.90
2022-10-19T18:18:39.977Z,74.00
2022-10-19T18:21:11.316Z,74.00
2022-10-19T18:23:39.280Z,73.90
2022-10-19T18:26:07.928Z,74.10
2022-10-19T18:28:35.957Z,74.40
2022-10-19T18:31:07.728Z,74.60
2022-10-19T18:33:35.674Z,74.30
2022-10-19T18:36:03.542Z,73.90
2022-10-19T18:38:32.859Z,73.70
2022-10-19T18:41:02.697Z,73.60
2022-10-19T18:43:30.585Z,74.00
2022-10-19T18:45:59.411Z,74.00
2022-10-19T18:48:28.092Z,74.00
2022-10-19T18:50:55.975Z,73.80
2022-10-19T18:53:24.197Z,74.10
2022-10-19T18:55:59.254Z,74.30
2022-10-19T18:58:27.167Z,74.40
2022-10-19T19:01:03.735Z,74.40
2022-10-19T19:03:31.641Z,74.30
2022-10-19T19:06:04.454Z,74.40
2022-10-19T19:08:34.826Z,74.70
2022-10-19T19:11:11.302Z,74.70
2022-10-19T19:13:39.247Z,74.60
2022-10-19T19:16:07.584Z,74.60
2022-10-19T19:18:35.516Z,74.60
2022-10-19T19:21:03.368Z,75.00
2022-10-19T19:23:31.330Z,75.00
2022-10-19T19:25:59.191Z,74.50
2022-10-19T19:28:28.422Z,74.00
2022-10-19T19:30:56.326Z,73.40
2022-10-19T19:33:24.220Z,73.70
2022-10-19T19:35:52.311Z,72.90
2022-10-19T19:38:20.167Z,72.90
2022-10-19T19:40:48.053Z,73.20
2022-10-19T19:43:16.182Z,73.60
2022-10-19T19:45:45.452Z,74.00
2022-10-19T19:48:13.393Z,74.00
2022-10-19T19:50:41.270Z,73.90
2022-10-19T19:53:09.171Z,74.60
2022-10-19T19:55:39.067Z,74.20
2022-10-19T19:58:07.262Z,74.50
2022-10-19T20:00:35.386Z,74.40
2022-10-19T20:03:04.616Z,74.40
2022-10-19T20:05:32.964Z,74.40
2022-10-19T20:08:00.827Z,74.50
2022-10-19T20:10:28.713Z,74.80
2022-10-19T20:12:56.615Z,74.60
2022-10-19T20:15:24.546Z,74.20
2022-10-19T20:17:52.404Z,73.70
2022-10-19T20:20:22.198Z,73.70
2022-10-19T20:22:50.146Z,74.00
2022-10-19T20:25:18.157Z,73.90
2022-10-19T20:27:46.027Z,73.90
2022-10-19T20:30:13.918Z,73.80
2022-10-19T20:32:41.802Z,74.00
2022-10-19T20:35:10.273Z,74.40
2022-10-19T20:37:39.483Z,74.30
2022-10-19T20:40:09.064Z,74.20
2022-10-19T20:42:37.237Z,74.20
2022-10-19T20:45:06.073Z,74.40
2022-10-19T20:47:33.952Z,74.60
2022-10-19T20:52:34.856Z,74.40
2022-10-19T20:55:04.376Z,74.00
2022-10-19T20:57:32.289Z,73.70
2022-10-19T21:00:00.176Z,73.50
2022-10-19T21:02:28.082Z,73.70
2022-10-19T21:04:55.990Z,73.70
2022-10-19T21:07:23.876Z,73.60
2022-10-19T21:09:51.739Z,73.60
2022-10-19T21:12:20.969Z,73.90
2022-10-19T21:14:49.927Z,74.00
2022-10-19T21:17:17.803Z,74.40
2022-10-19T21:19:45.686Z,74.30
2022-10-19T21:22:13.898Z,74.10
2022-10-19T21:24:41.798Z,74.20
2022-10-19T21:27:09.920Z,74.30
2022-10-19T21:29:39.336Z,74.80
2022-10-19T21:32:07.457Z,74.80
2022-10-19T21:34:35.504Z,74.40
2022-10-19T21:37:03.859Z,73.90
2022-10-19T21:39:31.757Z,73.20
2022-10-19T21:41:59.639Z,73.10
2022-10-19T21:44:27.520Z,73.10
2022-10-19T21:46:56.762Z,73.30
2022-10-19T21:49:24.627Z,73.50
2022-10-19T21:51:53.541Z,74.00
2022-10-19T21:54:22.100Z,74.00
2022-10-19T21:56:50.225Z,74.00
2022-10-19T21:59:18.309Z,74.00
2022-10-19T22:01:46.276Z,74.10
2022-10-19T22:04:16.187Z,74.50
2022-10-19T22:06:44.100Z,74.60
2022-10-19T22:09:14.352Z,74.30
2022-10-19T22:11:42.233Z,73.90
2022-10-19T22:14:11.244Z,73.70
2022-10-19T22:16:39.098Z,73.60
2022-10-19T22:19:07.130Z,73.80
2022-10-19T22:24:10.317Z,73.80
2022-10-19T22:26:39.867Z,73.80
2022-10-19T22:29:07.916Z,73.90
2022-10-19T22:31:36.573Z,74.20
2022-10-19T22:34:05.493Z,74.30
2022-10-19T22:36:33.347Z,74.30
2022-10-19T22:39:02.548Z,74.20
2022-10-19T22:41:30.395Z,75.10
2022-10-19T22:43:58.503Z,74.70
2022-10-19T22:46:26.384Z,74.70
2022-10-19T22:48:54.322Z,74.60
2022-10-19T22:51:22.294Z,74.50
2022-10-19T22:53:50.151Z,74.60
2022-10-19T22:56:19.371Z,74.80
2022-10-19T22:58:47.240Z,75.00
2022-10-19T23:01:16.061Z,74.60
2022-10-19T23:03:44.039Z,74.10
2022-10-19T23:06:14.338Z,73.50
2022-10-19T23:08:42.333Z,73.20
2022-10-19T23:11:10.221Z,73.00
2022-10-19T23:13:39.462Z,73.00
2022-10-19T23:16:07.909Z,73.30
2022-10-19T23:18:36.444Z,73.80
2022-10-19T23:21:06.208Z,74.00
2022-10-19T23:23:34.329Z,73.90
2022-10-19T23:26:03.499Z,73.90
2022-10-19T23:28:31.635Z,74.00
2022-10-19T23:31:04.531Z,74.20
2022-10-19T23:33:32.547Z,74.60
2022-10-19T23:36:03.994Z,74.50
2022-10-19T23:38:31.904Z,74.40
2022-10-19T23:40:59.783Z,74.50
2022-10-19T23:43:27.729Z,74.60
2022-10-19T23:45:55.652Z,74.90
2022-10-19T23:48:24.879Z,74.60
2022-10-19T23:51:00.023Z,74.30
2022-10-19T23:53:28.131Z,73.60
2022-10-19T23:55:59.728Z,73.10
2022-10-19T23:58:27.611Z,73.00
